createdAt,value
2022-09-05T00:02:32.072Z,2.85
2022-09-05T00:05:54.038Z,3.08
2022-09-05T00:08:48.572Z,2.65
2022-09-05T00:11:43.204Z,2.60
2022-09-05T00:14:34.390Z,3.05
2022-09-05T00:17:23.860Z,2.67
2022-09-05T00:24:19.943Z,2.85
2022-09-05T00:24:35.702Z,2.78
2022-09-05T00:26:25.038Z,2.72
2022-09-05T00:29:20.414Z,2.63
2022-09-05T00:32:24.610Z,2.78
2022-09-05T00:34:58.581Z,2.90
2022-09-05T00:37:32.260Z,2.88
2022-09-05T00:40:19.113Z,2.50
2022-09-05T00:42:55.309Z,2.58
2022-09-05T00:45:37.900Z,2.65
2022-09-05T00:48:22.693Z,2.55
2022-09-05T00:51:05.742Z,2.75
2022-09-05T00:53:49.130Z,2.65
2022-09-05T00:56:46.175Z,3.00
2022-09-05T00:59:58.657Z,2.55
2022-09-05T01:03:10.257Z,2.90
2022-09-05T01:06:00.539Z,2.85
2022-09-05T01:08:56.070Z,2.80
2022-09-05T01:11:53.840Z,2.90
2022-09-05T01:14:27.680Z,3.10
2022-09-05T01:17:18.721Z,2.92
2022-09-05T01:20:19.980Z,3.22
2022-09-05T01:23:15.895Z,2.95
2022-09-05T01:26:02.146Z,3.00
2022-09-05T01:29:17.389Z,2.75
2022-09-05T01:32:15.575Z,2.90
2022-09-05T01:35:04.426Z,2.78
2022-09-05T01:37:59.183Z,3.03
2022-09-05T01:44:26.675Z,3.00
2022-09-05T01:47:29.404Z,2.83
2022-09-05T01:50:21.222Z,3.10
2022-09-05T01:53:28.000Z,3.22
2022-09-05T01:56:11.166Z,2.95
2022-09-05T01:59:02.452Z,3.03
2022-09-05T02:01:54.270Z,3.00
2022-09-05T02:04:43.807Z,3.30
2022-09-05T02:07:34.887Z,2.60
2022-09-05T02:10:24.270Z,2.80
2022-09-05T02:13:02.979Z,2.90
2022-09-05T02:15:59.329Z,3.53
2022-09-05T02:18:37.507Z,3.58
2022-09-05T02:21:13.444Z,3.55
2022-09-05T02:23:46.729Z,3.70
2022-09-05T02:26:30.197Z,4.22
2022-09-05T02:29:12.289Z,3.92
2022-09-05T02:32:02.959Z,3.60
2022-09-05T02:34:40.784Z,3.95
2022-09-05T02:38:51.059Z,4.22
2022-09-05T02:45:08.602Z,3.85
2022-09-05T02:45:10.559Z,4.03
2022-09-05T02:46:50.795Z,4.68
2022-09-05T02:50:28.248Z,4.18
2022-09-05T02:57:26.057Z,4.30
2022-09-05T02:57:38.993Z,4.43
2022-09-05T02:58:21.239Z,4.43
2022-09-05T03:01:06.461Z,4.20
2022-09-05T03:03:49.206Z,4.72
2022-09-05T03:06:35.510Z,4.60
2022-09-05T03:09:32.518Z,5.20
2022-09-05T03:12:28.496Z,5.65
2022-09-05T03:15:34.308Z,5.22
2022-09-05T03:18:23.508Z,5.10
2022-09-05T03:21:19.167Z,5.70
2022-09-05T03:24:25.423Z,6.18
2022-09-05T03:27:16.601Z,4.93
2022-09-05T03:30:03.360Z,5.90
2022-09-05T03:32:40.402Z,5.88
2022-09-05T03:35:31.915Z,5.90
2022-09-05T03:38:43.368Z,6.07
2022-09-05T03:41:40.429Z,5.93
2022-09-05T03:44:29.845Z,5.70
2022-09-05T03:47:31.730Z,5.85
2022-09-05T03:57:05.024Z,5.95
2022-09-05T03:57:17.191Z,5.95
2022-09-05T03:59:32.740Z,5.68
2022-09-05T04:03:17.896Z,5.85
2022-09-05T04:08:23.790Z,6.63
2022-09-05T04:08:46.265Z,6.88
2022-09-05T04:11:23.431Z,5.90
2022-09-05T04:14:00.676Z,5.63
2022-09-05T04:16:42.665Z,6.20
2022-09-05T04:19:37.828Z,6.32
2022-09-05T04:22:49.224Z,6.00
2022-09-05T04:25:44.780Z,5.63
2022-09-05T04:28:31.330Z,5.60
2022-09-05T04:31:09.551Z,5.70
2022-09-05T04:34:00.938Z,5.72
2022-09-05T04:36:33.224Z,5.88
2022-09-05T04:39:19.344Z,6.22
2022-09-05T04:41:55.165Z,6.07
2022-09-05T04:44:31.532Z,5.63
2022-09-05T04:47:13.507Z,5.82
2022-09-05T04:50:09.448Z,5.07
2022-09-05T04:53:13.790Z,5.45
2022-09-05T04:55:50.751Z,4.72
2022-09-05T05:00:56.325Z,4.85
2022-09-05T05:06:00.596Z,5.30
2022-09-05T05:06:15.941Z,5.30
2022-09-05T05:07:26.529Z,5.78
2022-09-05T05:10:25.585Z,5.32
2022-09-05T05:17:55.806Z,6.00
2022-09-05T05:18:14.532Z,5.47
2022-09-05T05:19:28.185Z,5.40
2022-09-05T05:21:59.372Z,5.75
2022-09-05T05:24:34.160Z,5.88
2022-09-05T05:27:20.747Z,6.53
2022-09-05T05:30:24.324Z,5.88
2022-09-05T05:32:54.211Z,5.65
2022-09-05T05:35:29.242Z,5.30
2022-09-05T05:38:30.241Z,6.10
2022-09-05T05:41:29.702Z,6.28
2022-09-05T05:43:59.290Z,5.85
2022-09-05T05:46:33.049Z,5.60
2022-09-05T05:52:02.284Z,5.60
2022-09-05T05:54:49.773Z,6.00
2022-09-05T05:57:27.304Z,6.47
2022-09-05T06:00:03.086Z,6.43
2022-09-05T06:03:09.757Z,6.55
2022-09-05T06:06:20.769Z,5.93
2022-09-05T06:13:22.647Z,5.45
2022-09-05T06:14:55.864Z,4.82
2022-09-05T06:15:26.700Z,5.22
2022-09-05T06:18:14.600Z,4.85
2022-09-05T06:22:11.423Z,5.20
2022-09-05T06:24:21.159Z,5.00
2022-09-05T06:26:49.573Z,5.25
2022-09-05T06:29:17.524Z,4.50
2022-09-05T06:32:04.842Z,4.60
2022-09-05T06:35:38.637Z,4.65
2022-09-05T06:38:24.524Z,5.43
2022-09-05T06:41:13.396Z,5.22
2022-09-05T06:44:02.391Z,5.20
2022-09-05T06:46:55.173Z,4.72
2022-09-05T06:49:38.666Z,4.47
2022-09-05T06:52:48.233Z,4.47
2022-09-05T06:55:39.638Z,4.68
2022-09-05T06:58:13.583Z,4.75
2022-09-05T07:00:54.832Z,4.10
2022-09-05T07:03:32.286Z,4.38
2022-09-05T07:06:19.282Z,4.50
2022-09-05T07:08:54.138Z,4.70
2022-09-05T07:11:24.135Z,4.22
2022-09-05T07:14:09.068Z,4.40
2022-09-05T07:16:56.323Z,4.07
2022-09-05T07:19:36.408Z,3.75
2022-09-05T07:22:46.040Z,3.75
2022-09-05T07:25:21.652Z,4.00
2022-09-05T07:28:28.725Z,4.00
2022-09-05T07:31:04.129Z,3.63
2022-09-05T07:36:11.845Z,3.88
2022-09-05T07:38:55.176Z,3.50
2022-09-05T07:41:33.069Z,3.75
2022-09-05T07:44:08.584Z,3.80
2022-09-05T07:46:40.651Z,3.55
2022-09-05T07:49:14.767Z,3.53
2022-09-05T07:56:47.304Z,3.67
2022-09-05T07:57:03.723Z,4.40
2022-09-05T07:57:51.485Z,3.97
2022-09-05T08:00:29.431Z,3.97
2022-09-05T08:03:12.848Z,3.50
2022-09-05T08:05:48.349Z,4.03
2022-09-05T08:08:22.931Z,4.30
2022-09-05T08:11:25.134Z,4.30
2022-09-05T08:13:57.791Z,4.07
2022-09-05T08:16:46.540Z,4.82
2022-09-05T08:20:08.960Z,3.80
2022-09-05T08:23:27.155Z,4.30
2022-09-05T08:26:15.418Z,3.60
2022-09-05T08:29:03.205Z,3.58
2022-09-05T08:31:46.156Z,3.42
2022-09-05T08:34:29.752Z,4.75
2022-09-05T08:37:12.939Z,4.57
2022-09-05T08:39:48.675Z,4.78
2022-09-05T08:43:29.498Z,4.53
2022-09-05T08:46:39.460Z,4.18
2022-09-05T08:48:58.272Z,4.70
2022-09-05T08:51:54.092Z,5.10
2022-09-05T08:54:31.530Z,4.15
2022-09-05T08:57:21.724Z,3.97
2022-09-05T09:00:20.907Z,4.70
2022-09-05T09:03:12.060Z,4.85
2022-09-05T09:06:11.958Z,4.22
2022-09-05T09:09:08.069Z,4.22
2022-09-05T09:11:44.378Z,4.15
2022-09-05T09:14:30.201Z,4.55
2022-09-05T09:17:23.573Z,4.38
2022-09-05T09:20:14.699Z,4.10
2022-09-05T09:23:31.916Z,3.70
2022-09-05T09:26:24.608Z,3.97
2022-09-05T09:29:16.794Z,4.38
2022-09-05T09:31:59.865Z,4.13
2022-09-05T09:34:31.924Z,4.68
2022-09-05T09:37:25.459Z,4.80
2022-09-05T09:41:00.416Z,3.50
2022-09-05T09:44:00.241Z,4.88
2022-09-05T09:46:47.711Z,3.97
2022-09-05T09:49:28.361Z,3.92
2022-09-05T09:52:22.231Z,4.50
2022-09-05T09:55:40.017Z,4.28
2022-09-05T09:58:45.728Z,4.18
2022-09-05T10:01:39.744Z,4.05
2022-09-05T10:10:35.372Z,4.10
2022-09-05T10:10:38.053Z,3.90
2022-09-05T10:10:45.281Z,3.75
2022-09-05T10:13:54.235Z,3.42
2022-09-05T10:16:27.798Z,3.80
2022-09-05T10:18:55.692Z,2.90
2022-09-05T10:22:34.269Z,3.45
2022-09-05T10:25:18.456Z,3.28
2022-09-05T10:28:07.859Z,3.67
2022-09-05T10:32:56.096Z,3.63
2022-09-05T10:35:11.370Z,2.97
2022-09-05T10:37:02.697Z,2.85
2022-09-05T10:39:35.605Z,2.67
2022-09-05T10:42:15.749Z,2.70
2022-09-05T10:44:57.781Z,2.72
2022-09-05T10:47:48.195Z,2.70
2022-09-05T10:50:29.727Z,2.80
2022-09-05T10:53:25.994Z,2.70
2022-09-05T10:56:28.617Z,3.00
2022-09-05T11:01:49.968Z,2.92
2022-09-05T11:02:29.728Z,3.30
2022-09-05T11:05:07.171Z,3.28
2022-09-05T11:07:49.095Z,3.40
2022-09-05T11:10:31.668Z,2.90
2022-09-05T11:13:26.714Z,2.90
2022-09-05T11:16:13.410Z,3.13
2022-09-05T11:19:00.842Z,3.53
2022-09-05T11:22:02.198Z,3.13
2022-09-05T11:24:51.775Z,3.20
2022-09-05T11:30:00.298Z,2.75
2022-09-05T11:36:06.845Z,3.40
2022-09-05T11:39:59.337Z,3.30
2022-09-05T11:40:07.646Z,2.83
2022-09-05T11:42:05.824Z,3.22
2022-09-05T11:44:57.539Z,3.67
2022-09-05T11:47:46.998Z,3.03
2022-09-05T11:50:55.377Z,3.63
2022-09-05T11:53:48.156Z,3.28
2022-09-05T11:56:45.709Z,3.08
2022-09-05T11:59:49.260Z,2.63
2022-09-05T12:03:11.891Z,3.30
2022-09-05T12:06:17.963Z,3.17
2022-09-05T12:09:04.748Z,3.50
2022-09-05T12:11:55.310Z,3.00
2022-09-05T12:14:55.140Z,3.22
2022-09-05T12:17:47.407Z,3.10
2022-09-05T12:20:25.329Z,3.17
2022-09-05T12:23:04.426Z,3.00
2022-09-05T12:27:37.048Z,3.08
2022-09-05T12:29:33.736Z,3.33
2022-09-05T12:32:30.969Z,3.42
2022-09-05T12:36:12.297Z,3.88
2022-09-05T12:40:35.694Z,3.05
2022-09-05T12:41:45.125Z,3.40
2022-09-05T12:44:42.584Z,3.30
2022-09-05T12:47:16.754Z,3.10
2022-09-05T12:50:14.472Z,3.45
2022-09-05T12:52:47.303Z,2.90
2022-09-05T12:55:20.352Z,3.15
2022-09-05T13:02:55.953Z,3.08
2022-09-05T13:03:13.606Z,2.90
2022-09-05T13:04:17.565Z,3.22
2022-09-05T13:06:47.312Z,3.63
2022-09-05T13:14:00.835Z,3.80
2022-09-05T13:14:53.959Z,3.30
2022-09-05T13:15:52.552Z,3.33
2022-09-05T13:18:25.352Z,2.83
2022-09-05T13:20:56.654Z,3.20
2022-09-05T13:23:24.971Z,2.88
2022-09-05T13:26:19.868Z,3.28
2022-09-05T13:29:05.976Z,3.05
2022-09-05T13:37:55.760Z,3.20
2022-09-05T13:38:14.611Z,2.85
2022-09-05T13:38:20.016Z,3.83
2022-09-05T13:40:29.011Z,3.30
2022-09-05T13:43:11.683Z,3.00
2022-09-05T13:46:17.640Z,2.70
2022-09-05T13:49:25.237Z,2.85
2022-09-05T13:52:00.709Z,2.92
2022-09-05T13:54:40.521Z,2.67
2022-09-05T13:57:31.907Z,3.05
2022-09-05T14:00:07.150Z,2.85
2022-09-05T14:03:38.840Z,3.00
2022-09-05T14:06:46.357Z,2.92
2022-09-05T14:09:46.898Z,2.92
2022-09-05T14:12:31.725Z,3.13
2022-09-05T14:15:10.752Z,2.72
2022-09-05T14:17:57.812Z,2.95
2022-09-05T14:20:50.184Z,3.00
2022-09-05T14:23:22.509Z,2.90
2022-09-05T14:25:55.765Z,3.15
2022-09-05T14:28:33.891Z,2.70
2022-09-05T14:34:30.950Z,2.72
2022-09-05T14:37:53.550Z,2.78
2022-09-05T14:38:04.408Z,3.03
2022-09-05T14:40:59.702Z,3.05
2022-09-05T14:43:37.996Z,2.65
2022-09-05T14:46:34.186Z,2.60
2022-09-05T14:49:21.096Z,2.63
2022-09-05T14:51:55.454Z,2.00
2022-09-05T15:02:39.815Z,2.67
2022-09-05T15:02:52.510Z,2.90
2022-09-05T15:03:16.700Z,2.60
2022-09-05T15:05:50.831Z,3.05
2022-09-05T15:12:04.128Z,2.75
2022-09-05T15:12:19.617Z,2.80
2022-09-05T15:14:13.328Z,3.25
2022-09-05T15:16:58.353Z,3.17
2022-09-05T15:20:06.479Z,3.38
2022-09-05T15:22:38.121Z,3.15
2022-09-05T15:25:19.723Z,5.18
2022-09-05T15:27:50.166Z,3.55
2022-09-05T15:30:35.790Z,3.20
2022-09-05T15:33:25.471Z,2.80
2022-09-05T15:35:54.221Z,2.92
2022-09-05T15:38:55.279Z,2.63
2022-09-05T15:41:26.785Z,2.90
2022-09-05T15:44:13.988Z,2.70
2022-09-05T15:46:51.552Z,2.67
2022-09-05T15:49:43.519Z,2.80
2022-09-05T15:52:34.472Z,2.53
2022-09-05T15:55:16.278Z,2.95
2022-09-05T15:58:09.392Z,2.80
2022-09-05T16:00:52.606Z,2.28
2022-09-05T16:05:30.447Z,2.38
2022-09-05T16:10:42.034Z,2.67
2022-09-05T16:10:42.608Z,3.05
2022-09-05T16:12:42.461Z,2.35
2022-09-05T16:17:51.137Z,4.32
2022-09-05T16:23:13.820Z,2.80
2022-09-05T16:23:23.589Z,2.25
2022-09-05T16:24:38.627Z,2.58
2022-09-05T16:27:43.665Z,2.40
2022-09-05T16:30:39.984Z,2.30
2022-09-05T16:33:17.325Z,2.30
2022-09-05T16:36:02.388Z,1.75
2022-09-05T16:39:00.381Z,2.58
2022-09-05T16:41:52.021Z,2.50
2022-09-05T16:44:43.855Z,2.45
2022-09-05T16:47:13.231Z,2.95
2022-09-05T16:49:57.306Z,2.47
2022-09-05T16:52:38.365Z,2.60
2022-09-05T16:55:32.700Z,3.20
2022-09-05T16:58:14.599Z,2.38
2022-09-05T17:01:11.988Z,3.28
2022-09-05T17:04:16.635Z,2.50
2022-09-05T17:07:04.237Z,2.85
2022-09-05T17:09:42.047Z,2.60
2022-09-05T17:12:13.389Z,2.67
2022-09-05T17:14:53.362Z,2.28
2022-09-05T17:18:19.939Z,2.75
2022-09-05T17:20:21.271Z,2.35
2022-09-05T17:26:21.679Z,2.50
2022-09-05T17:29:38.280Z,2.45
2022-09-05T17:31:56.201Z,2.65
2022-09-05T17:34:41.018Z,2.50
2022-09-05T17:37:36.560Z,2.97
2022-09-05T17:40:23.114Z,2.53
2022-09-05T17:43:28.397Z,2.13
2022-09-05T17:46:23.779Z,2.60
2022-09-05T17:49:18.896Z,2.42
2022-09-05T17:51:51.063Z,2.40
2022-09-05T17:54:28.392Z,2.53
2022-09-05T17:56:56.834Z,2.53
2022-09-05T17:59:29.112Z,2.80
2022-09-05T18:02:03.386Z,2.60
2022-09-05T18:04:46.616Z,2.70
2022-09-05T18:07:26.303Z,2.67
2022-09-05T18:10:12.783Z,2.70
2022-09-05T18:13:13.382Z,2.83
2022-09-05T18:15:40.786Z,5.00
2022-09-05T18:19:28.988Z,4.50
2022-09-05T18:21:23.023Z,5.45
2022-09-05T18:24:01.981Z,4.82
2022-09-05T18:27:29.394Z,4.75
2022-09-05T18:30:09.100Z,3.45
2022-09-05T18:32:47.292Z,3.50
2022-09-05T18:35:37.117Z,3.28
2022-09-05T18:38:16.721Z,2.63
2022-09-05T18:41:18.430Z,3.30
2022-09-05T18:44:13.523Z,3.25
2022-09-05T18:46:48.407Z,3.38
2022-09-05T18:50:22.063Z,3.05
2022-09-05T18:52:49.421Z,2.85
2022-09-05T18:56:09.570Z,3.03
2022-09-05T18:58:24.412Z,3.20
2022-09-05T19:00:56.233Z,2.63
2022-09-05T19:03:27.402Z,2.78
2022-09-05T19:06:34.272Z,3.20
2022-09-05T19:09:00.169Z,3.70
2022-09-05T19:11:36.858Z,2.80
2022-09-05T19:14:26.703Z,2.83
2022-09-05T19:17:27.426Z,2.97
2022-09-05T19:20:30.603Z,3.40
2022-09-05T19:23:10.314Z,3.00
2022-09-05T19:25:43.659Z,3.05
2022-09-05T19:35:50.092Z,3.00
2022-09-05T19:36:53.189Z,3.15
2022-09-05T19:37:23.714Z,2.85
2022-09-05T19:37:29.752Z,3.20
2022-09-05T19:42:15.914Z,3.13
2022-09-05T19:47:27.182Z,3.10
2022-09-05T19:47:55.489Z,3.28
2022-09-05T19:48:34.477Z,3.00
2022-09-05T19:51:17.209Z,3.15
2022-09-05T19:54:05.008Z,3.20
2022-09-05T19:56:47.123Z,2.88
2022-09-05T19:59:33.822Z,2.83
2022-09-05T20:02:02.950Z,3.10
2022-09-05T20:04:46.909Z,3.13
2022-09-05T20:07:27.170Z,3.35
2022-09-05T20:09:57.506Z,2.92
2022-09-05T20:12:41.654Z,3.40
2022-09-05T20:15:35.804Z,3.67
2022-09-05T20:18:27.650Z,3.50
2022-09-05T20:21:00.155Z,2.65
2022-09-05T20:23:32.532Z,3.55
2022-09-05T20:26:02.107Z,4.00
2022-09-05T20:28:38.360Z,3.42
2022-09-05T20:31:29.253Z,3.40
2022-09-05T20:34:03.437Z,4.28
2022-09-05T20:43:08.423Z,4.30
2022-09-05T20:43:26.809Z,3.90
2022-09-05T20:43:28.033Z,4.45
2022-09-05T20:45:45.677Z,3.58
2022-09-05T20:54:09.827Z,3.92
2022-09-05T20:54:20.155Z,3.88
2022-09-05T20:54:25.800Z,3.75
2022-09-05T20:56:48.921Z,3.95
2022-09-05T20:59:36.132Z,3.65
2022-09-05T21:02:07.879Z,3.75
2022-09-05T21:04:38.817Z,3.92
2022-09-05T21:07:19.417Z,3.88
2022-09-05T21:09:53.465Z,3.55
2022-09-05T21:12:30.995Z,3.08
2022-09-05T21:15:07.352Z,3.83
2022-09-05T21:17:53.716Z,3.05
2022-09-05T21:20:24.600Z,3.17
2022-09-05T21:22:56.383Z,3.03
2022-09-05T21:25:43.764Z,2.95
2022-09-05T21:28:37.346Z,3.28
2022-09-05T21:31:12.896Z,3.00
2022-09-05T21:33:45.304Z,3.03
2022-09-05T21:36:15.367Z,3.42
2022-09-05T21:38:44.065Z,3.25
2022-09-05T21:41:18.794Z,2.90
2022-09-05T21:47:46.174Z,3.03
2022-09-05T21:47:46.458Z,3.63
2022-09-05T21:49:27.390Z,3.75
2022-09-05T21:51:55.434Z,3.53
2022-09-05T21:59:13.668Z,3.50
2022-09-05T21:59:29.147Z,3.17
2022-09-05T22:00:14.867Z,3.10
2022-09-05T22:02:49.189Z,3.33
2022-09-05T22:05:17.782Z,3.00
2022-09-05T22:07:46.270Z,3.15
2022-09-05T22:10:15.290Z,3.45
2022-09-05T22:12:46.117Z,3.50
2022-09-05T22:15:27.622Z,3.33
2022-09-05T22:18:17.373Z,3.30
2022-09-05T22:21:31.747Z,3.47
2022-09-05T22:23:50.077Z,3.42
2022-09-05T22:26:31.528Z,3.90
2022-09-05T22:29:05.837Z,3.85
2022-09-05T22:31:33.973Z,3.30
2022-09-05T22:34:03.843Z,3.45
2022-09-05T22:36:33.051Z,3.42
2022-09-05T22:39:01.546Z,3.63
2022-09-05T22:41:31.240Z,3.40
2022-09-05T22:43:59.206Z,3.45
2022-09-05T22:46:27.373Z,3.13
2022-09-05T22:48:55.355Z,3.55
2022-09-05T22:51:23.238Z,3.65
2022-09-05T22:53:51.128Z,4.05
2022-09-05T22:56:38.189Z,3.50
2022-09-05T22:59:06.623Z,3.55
2022-09-05T23:01:34.598Z,3.35
2022-09-05T23:04:05.534Z,3.80
2022-09-05T23:06:33.578Z,3.85
2022-09-05T23:09:01.626Z,4.00
2022-09-05T23:11:29.799Z,3.72
2022-09-05T23:13:57.745Z,3.95
2022-09-05T23:16:25.699Z,3.50
2022-09-05T23:18:53.675Z,3.40
2022-09-05T23:21:24.476Z,3.78
2022-09-05T23:23:52.342Z,3.97
2022-09-05T23:26:20.279Z,3.38
2022-09-05T23:28:48.149Z,3.10
2022-09-05T23:31:16.253Z,3.60
2022-09-05T23:33:45.175Z,3.25
2022-09-05T23:36:14.059Z,3.63
2022-09-05T23:38:43.384Z,3.60
2022-09-05T23:41:14.208Z,3.25
2022-09-05T23:43:42.562Z,3.35
2022-09-05T23:46:10.501Z,3.53
2022-09-05T23:48:41.127Z,3.58
2022-09-05T23:51:11.698Z,3.28
2022-09-05T23:53:40.047Z,3.55
2022-09-05T23:56:09.720Z,3.42
2022-09-05T23:58:38.762Z,2.88
